createdAt,value
2018-07-10T00:00:07.324Z,59.70
2018-07-10T00:01:07.312Z,59.89
2018-07-10T00:02:07.296Z,59.80
2018-07-10T00:03:07.285Z,59.80
2018-07-10T00:04:07.270Z,59.12
2018-07-10T00:05:07.259Z,59.12
2018-07-10T00:06:07.245Z,59.54
2018-07-10T00:07:07.234Z,59.80
2018-07-10T00:08:07.274Z,60.08
2018-07-10T00:09:07.204Z,59.99
2018-07-10T00:10:07.190Z,59.12
2018-07-10T00:11:07.176Z,59.12
2018-07-10T00:12:07.164Z,59.51
2018-07-10T00:13:07.153Z,59.03
2018-07-10T00:14:07.133Z,59.03
2018-07-10T00:15:07.121Z,59.54
2018-07-10T00:16:07.108Z,60.08
2018-07-10T00:17:07.095Z,59.54
2018-07-10T00:18:07.081Z,60.08
2018-07-10T00:19:07.070Z,59.61
2018-07-10T00:20:07.054Z,59.80
2018-07-10T00:21:07.040Z,59.80
2018-07-10T00:22:07.025Z,60.18
2018-07-10T00:23:07.011Z,59.32
2018-07-10T00:24:07.000Z,59.51
2018-07-10T00:25:06.988Z,59.64
2018-07-10T00:26:06.976Z,59.73
2018-07-10T00:27:06.957Z,59.64
2018-07-10T00:28:06.946Z,58.67
2018-07-10T00:29:06.938Z,59.06
2018-07-10T00:30:06.917Z,59.12
2018-07-10T00:31:06.913Z,59.22
2018-07-10T00:32:06.890Z,60.08
2018-07-10T00:33:06.887Z,59.61
2018-07-10T00:34:06.871Z,59.70
2018-07-10T00:35:06.855Z,59.89
2018-07-10T00:36:06.837Z,59.70
2018-07-10T00:37:06.828Z,60.18
2018-07-10T00:38:06.810Z,60.08
2018-07-10T00:39:06.804Z,60.28
2018-07-10T00:40:06.783Z,60.28
2018-07-10T00:41:06.779Z,59.70
2018-07-10T00:42:06.759Z,59.70
2018-07-10T00:43:06.741Z,59.70
2018-07-10T00:44:06.729Z,59.41
2018-07-10T00:45:06.718Z,60.18
2018-07-10T00:46:06.701Z,60.75
2018-07-10T00:47:06.692Z,60.47
2018-07-10T00:48:06.672Z,61.52
2018-07-10T00:49:06.660Z,61.52
2018-07-10T00:50:06.655Z,61.05
2018-07-10T00:51:06.633Z,60.66
2018-07-10T00:52:06.620Z,60.57
2018-07-10T00:53:06.607Z,60.66
2018-07-10T00:54:06.591Z,60.66
2018-07-10T00:55:06.580Z,60.57
2018-07-10T00:56:06.564Z,60.85
2018-07-10T00:57:06.553Z,60.75
2018-07-10T00:58:06.536Z,61.05
2018-07-10T00:59:06.524Z,61.24
2018-07-10T01:00:06.517Z,61.33
2018-07-10T01:01:06.508Z,61.43
2018-07-10T01:02:06.484Z,61.14
2018-07-10T01:03:06.470Z,61.24
2018-07-10T01:04:06.456Z,61.33
2018-07-10T01:05:06.445Z,60.57
2018-07-10T01:06:06.428Z,61.05
2018-07-10T01:07:06.413Z,60.66
2018-07-10T01:08:06.402Z,60.66
2018-07-10T01:09:06.387Z,60.85
2018-07-10T01:10:06.388Z,59.89
2018-07-10T01:11:06.360Z,60.08
2018-07-10T01:12:06.350Z,59.89
2018-07-10T01:13:06.332Z,60.85
2018-07-10T01:14:06.324Z,60.75
2018-07-10T01:15:06.305Z,60.75
2018-07-10T01:16:06.293Z,60.66
2018-07-10T01:17:06.277Z,60.95
2018-07-10T01:18:06.264Z,60.57
2018-07-10T01:19:06.255Z,59.61
2018-07-10T01:20:06.237Z,59.70
2018-07-10T01:21:06.224Z,59.12
2018-07-10T01:22:06.209Z,59.70
2018-07-10T01:23:06.195Z,59.70
2018-07-10T01:24:06.182Z,59.70
2018-07-10T01:25:06.177Z,60.35
2018-07-10T01:26:06.155Z,60.82
2018-07-10T01:27:06.141Z,60.63
2018-07-10T01:28:06.128Z,60.92
2018-07-10T01:29:06.118Z,60.53
2018-07-10T01:30:06.099Z,60.25
2018-07-10T01:31:06.088Z,60.72
2018-07-10T01:32:06.072Z,60.82
2018-07-10T01:33:06.061Z,60.82
2018-07-10T01:34:06.048Z,60.35
2018-07-10T01:35:06.031Z,60.63
2018-07-10T01:36:06.018Z,60.44
2018-07-10T01:37:06.005Z,60.44
2018-07-10T01:38:05.988Z,60.44
2018-07-10T01:39:05.976Z,60.82
2018-07-10T01:40:05.961Z,60.82
2018-07-10T01:41:05.947Z,60.63
2018-07-10T01:42:05.936Z,61.21
2018-07-10T01:43:05.921Z,61.21
2018-07-10T01:44:05.906Z,60.82
2018-07-10T01:45:05.898Z,61.40
2018-07-10T01:46:05.879Z,61.02
2018-07-10T01:47:05.865Z,61.21
2018-07-10T01:48:05.851Z,61.27
2018-07-10T01:49:05.891Z,61.66
2018-07-10T01:50:05.824Z,61.56
2018-07-10T01:51:05.810Z,61.46
2018-07-10T01:52:05.801Z,61.37
2018-07-10T01:53:05.786Z,61.66
2018-07-10T01:54:05.771Z,62.04
2018-07-10T01:55:05.757Z,61.75
2018-07-10T01:56:05.745Z,62.62
2018-07-10T01:57:05.730Z,62.04
2018-07-10T01:58:05.713Z,62.33
2018-07-10T01:59:05.700Z,61.46
2018-07-10T02:00:05.688Z,61.85
2018-07-10T02:01:05.672Z,62.23
2018-07-10T02:02:05.657Z,62.52
2018-07-10T02:03:05.645Z,62.13
2018-07-10T02:04:05.633Z,62.42
2018-07-10T02:05:05.618Z,62.23
2018-07-10T02:06:05.603Z,62.23
2018-07-10T02:07:05.590Z,62.13
2018-07-10T02:08:05.577Z,62.52
2018-07-10T02:09:05.564Z,62.81
2018-07-10T02:10:05.549Z,62.42
2018-07-10T02:11:05.533Z,62.45
2018-07-10T02:12:05.521Z,62.52
2018-07-10T02:13:05.506Z,62.36
2018-07-10T02:14:05.507Z,62.07
2018-07-10T02:15:05.479Z,62.36
2018-07-10T02:16:05.465Z,62.55
2018-07-10T02:17:05.450Z,62.36
2018-07-10T02:18:05.436Z,62.55
2018-07-10T02:19:05.421Z,62.36
2018-07-10T02:20:05.413Z,62.07
2018-07-10T02:21:05.396Z,61.69
2018-07-10T02:22:05.378Z,61.78
2018-07-10T02:23:05.368Z,61.40
2018-07-10T02:24:05.353Z,61.78
2018-07-10T02:25:05.395Z,61.69
2018-07-10T02:26:05.376Z,61.98
2018-07-10T02:27:05.307Z,61.98
2018-07-10T02:28:05.298Z,61.59
2018-07-10T02:29:05.287Z,62.55
2018-07-10T02:30:05.268Z,62.65
2018-07-10T02:31:05.258Z,62.55
2018-07-10T02:32:05.240Z,62.65
2018-07-10T02:33:05.227Z,62.36
2018-07-10T02:34:05.215Z,62.26
2018-07-10T02:35:05.197Z,62.62
2018-07-10T02:36:05.196Z,62.62
2018-07-10T02:37:05.176Z,63.00
2018-07-10T02:38:05.154Z,63.29
2018-07-10T02:39:05.141Z,63.57
2018-07-10T02:40:05.126Z,63.86
2018-07-10T02:41:05.113Z,63.67
2018-07-10T02:42:05.101Z,63.96
2018-07-10T02:43:05.085Z,63.38
2018-07-10T02:44:05.071Z,63.38
2018-07-10T02:45:05.059Z,63.29
2018-07-10T02:46:05.040Z,63.19
2018-07-10T02:47:05.028Z,63.67
2018-07-10T02:48:05.012Z,63.96
2018-07-10T02:49:05.001Z,63.76
2018-07-10T02:50:04.983Z,63.19
2018-07-10T02:51:04.969Z,63.96
2018-07-10T02:52:04.957Z,63.19
2018-07-10T02:53:04.943Z,63.76
2018-07-10T02:54:04.925Z,63.67
2018-07-10T02:55:04.916Z,63.57
2018-07-10T02:56:04.901Z,64.05
2018-07-10T02:57:04.885Z,63.67
2018-07-10T02:58:04.875Z,63.19
2018-07-10T02:59:04.857Z,63.57
2018-07-10T03:00:04.844Z,63.19
2018-07-10T03:01:04.828Z,63.76
2018-07-10T03:02:04.813Z,63.19
2018-07-10T03:03:04.799Z,64.05
2018-07-10T03:04:04.784Z,63.38
2018-07-10T03:05:04.773Z,63.38
2018-07-10T03:06:04.757Z,63.48
2018-07-10T03:07:04.742Z,64.25
2018-07-10T03:08:04.732Z,63.76
2018-07-10T03:09:04.713Z,63.48
2018-07-10T03:10:04.708Z,63.76
2018-07-10T03:11:04.688Z,63.57
2018-07-10T03:12:04.668Z,63.76
2018-07-10T03:13:04.660Z,63.76
2018-07-10T03:14:04.640Z,63.57
2018-07-10T03:15:04.627Z,64.63
2018-07-10T03:16:04.613Z,63.76
2018-07-10T03:17:04.599Z,63.12
2018-07-10T03:18:04.584Z,63.32
2018-07-10T03:19:04.571Z,63.60
2018-07-10T03:20:04.560Z,63.51
2018-07-10T03:21:04.545Z,63.60
2018-07-10T03:22:04.529Z,63.79
2018-07-10T03:23:04.538Z,63.60
2018-07-10T03:24:04.499Z,63.22
2018-07-10T03:25:04.485Z,63.60
2018-07-10T03:26:04.467Z,63.99
2018-07-10T03:27:04.454Z,63.42
2018-07-10T03:28:04.440Z,63.70
2018-07-10T03:29:04.425Z,64.43
2018-07-10T03:30:04.424Z,64.72
2018-07-10T03:31:04.403Z,63.86
2018-07-10T03:32:04.381Z,64.72
2018-07-10T03:33:04.366Z,64.53
2018-07-10T03:34:04.354Z,64.53
2018-07-10T03:35:04.342Z,64.15
2018-07-10T03:36:04.324Z,64.34
2018-07-10T03:37:04.317Z,64.18
2018-07-10T03:38:04.298Z,64.43
2018-07-10T03:39:04.280Z,64.66
2018-07-10T03:40:04.269Z,64.56
2018-07-10T03:41:04.251Z,64.37
2018-07-10T03:42:04.238Z,63.79
2018-07-10T03:43:04.223Z,64.56
2018-07-10T03:44:04.207Z,63.42
2018-07-10T03:45:04.198Z,63.89
2018-07-10T03:46:04.179Z,64.76
2018-07-10T03:47:04.163Z,64.47
2018-07-10T03:48:04.150Z,64.37
2018-07-10T03:49:04.138Z,64.82
2018-07-10T03:50:04.119Z,64.82
2018-07-10T03:51:04.104Z,64.82
2018-07-10T03:52:04.094Z,65.88
2018-07-10T03:53:04.078Z,65.20
2018-07-10T03:54:04.060Z,65.11
2018-07-10T03:55:04.044Z,65.17
2018-07-10T03:56:04.033Z,65.78
2018-07-10T03:57:04.021Z,65.01
2018-07-10T03:58:04.001Z,65.39
2018-07-10T03:59:03.991Z,65.26
2018-07-10T04:00:03.972Z,65.78
2018-07-10T04:01:03.958Z,65.08
2018-07-10T04:02:03.942Z,64.89
2018-07-10T04:03:03.929Z,65.75
2018-07-10T04:04:03.915Z,65.30
2018-07-10T04:05:03.903Z,65.49
2018-07-10T04:06:03.889Z,65.11
2018-07-10T04:07:03.872Z,65.11
2018-07-10T04:08:03.857Z,65.68
2018-07-10T04:09:03.854Z,65.36
2018-07-10T04:10:03.828Z,66.03
2018-07-10T04:11:03.818Z,65.88
2018-07-10T04:12:03.799Z,65.97
2018-07-10T04:13:03.784Z,65.78
2018-07-10T04:14:03.768Z,65.11
2018-07-10T04:15:03.755Z,65.78
2018-07-10T04:16:03.741Z,65.97
2018-07-10T04:17:03.726Z,65.78
2018-07-10T04:18:03.715Z,65.78
2018-07-10T04:19:03.699Z,65.84
2018-07-10T04:20:03.684Z,65.84
2018-07-10T04:21:03.668Z,66.61
2018-07-10T04:22:03.655Z,66.83
2018-07-10T04:23:03.644Z,66.61
2018-07-10T04:24:03.638Z,66.80
2018-07-10T04:25:03.608Z,66.64
2018-07-10T04:26:03.600Z,66.89
2018-07-10T04:27:03.589Z,66.74
2018-07-10T04:28:03.565Z,66.71
2018-07-10T04:29:03.556Z,66.32
2018-07-10T04:30:03.538Z,66.71
2018-07-10T04:31:03.520Z,67.22
2018-07-10T04:32:03.512Z,67.41
2018-07-10T04:33:03.501Z,66.83
2018-07-10T04:34:03.477Z,66.93
2018-07-10T04:35:03.466Z,66.74
2018-07-10T04:36:03.450Z,65.78
2018-07-10T04:37:03.435Z,65.88
2018-07-10T04:38:03.423Z,66.83
2018-07-10T04:39:03.415Z,66.64
2018-07-10T04:40:03.392Z,66.45
2018-07-10T04:41:03.378Z,67.22
2018-07-10T04:42:03.367Z,67.22
2018-07-10T04:43:03.348Z,67.22
2018-07-10T04:44:03.334Z,67.32
2018-07-10T04:45:03.323Z,67.12
2018-07-10T04:46:03.305Z,66.64
2018-07-10T04:47:03.293Z,66.83
2018-07-10T04:48:03.276Z,66.74
2018-07-10T04:49:03.283Z,67.32
2018-07-10T04:50:03.250Z,66.74
2018-07-10T04:51:03.233Z,67.12
2018-07-10T04:52:03.219Z,66.64
2018-07-10T04:53:03.208Z,66.45
2018-07-10T04:54:03.192Z,66.45
2018-07-10T04:55:03.177Z,66.83
2018-07-10T04:56:03.161Z,66.55
2018-07-10T04:57:03.147Z,66.83
2018-07-10T04:58:03.131Z,66.64
2018-07-10T04:59:03.118Z,66.83
2018-07-10T05:00:03.106Z,66.64
2018-07-10T05:01:03.095Z,66.93
2018-07-10T05:02:03.077Z,66.06
2018-07-10T05:03:03.061Z,66.45
2018-07-10T05:04:03.046Z,67.32
2018-07-10T05:05:03.031Z,67.02
2018-07-10T05:06:03.019Z,67.50
2018-07-10T05:07:03.002Z,67.41
2018-07-10T05:08:02.987Z,66.45
2018-07-10T05:09:02.975Z,66.93
2018-07-10T05:10:02.958Z,66.64
2018-07-10T05:11:02.944Z,67.50
2018-07-10T05:12:02.999Z,67.41
2018-07-10T05:13:02.915Z,67.32
2018-07-10T05:14:02.910Z,67.32
2018-07-10T05:15:02.888Z,67.22
2018-07-10T05:16:02.874Z,67.22
2018-07-10T05:17:02.860Z,67.44
2018-07-10T05:18:02.845Z,67.44
2018-07-10T05:19:02.829Z,66.67
2018-07-10T05:20:02.817Z,66.86
2018-07-10T05:21:02.801Z,66.67
2018-07-10T05:22:02.786Z,65.91
2018-07-10T05:23:02.816Z,66.19
2018-07-10T05:24:02.765Z,65.97
2018-07-10T05:25:02.743Z,66.16
2018-07-10T05:26:02.730Z,66.06
2018-07-10T05:27:02.715Z,65.97
2018-07-10T05:28:02.701Z,66.83
2018-07-10T05:29:02.720Z,66.64
2018-07-10T05:30:02.678Z,66.96
2018-07-10T05:31:02.666Z,67.06
2018-07-10T05:32:02.644Z,67.06
2018-07-10T05:33:02.631Z,66.49
2018-07-10T05:34:02.617Z,66.19
2018-07-10T05:35:02.600Z,65.49
2018-07-10T05:36:02.590Z,66.06
2018-07-10T05:37:02.573Z,65.88
2018-07-10T05:38:02.557Z,65.97
2018-07-10T05:39:02.543Z,66.06
2018-07-10T05:40:02.530Z,66.83
2018-07-10T05:41:02.519Z,66.64
2018-07-10T05:42:02.503Z,67.22
2018-07-10T05:43:02.490Z,67.41
2018-07-10T05:44:02.471Z,67.44
2018-07-10T05:45:02.462Z,66.96
2018-07-10T05:46:02.445Z,67.06
2018-07-10T05:47:02.432Z,67.32
2018-07-10T05:48:02.418Z,66.64
2018-07-10T05:49:02.406Z,67.12
2018-07-10T05:50:02.388Z,67.50
2018-07-10T05:51:02.374Z,67.22
2018-07-10T05:52:02.445Z,67.41
2018-07-10T05:53:02.349Z,67.50
2018-07-10T05:54:02.331Z,68.18
2018-07-10T05:55:02.318Z,68.85
2018-07-10T05:56:02.300Z,68.85
2018-07-10T05:57:02.289Z,68.85
2018-07-10T05:58:02.274Z,68.46
2018-07-10T05:59:02.262Z,68.40
2018-07-10T06:00:02.247Z,68.79
2018-07-10T06:01:02.230Z,69.26
2018-07-10T06:02:02.228Z,68.50
2018-07-10T06:03:02.205Z,68.59
2018-07-10T06:04:02.190Z,67.73
2018-07-10T06:05:02.179Z,67.83
2018-07-10T06:06:02.160Z,68.56
2018-07-10T06:07:02.148Z,67.92
2018-07-10T06:08:02.134Z,68.08
2018-07-10T06:09:02.122Z,68.66
2018-07-10T06:10:02.108Z,68.66
2018-07-10T06:11:02.091Z,67.41
2018-07-10T06:12:02.075Z,67.60
2018-07-10T06:13:02.062Z,68.75
2018-07-10T06:14:02.076Z,68.50
2018-07-10T06:15:02.034Z,68.30
2018-07-10T06:16:02.021Z,68.88
2018-07-10T06:17:02.006Z,68.02
2018-07-10T06:18:01.989Z,67.44
2018-07-10T06:19:01.990Z,67.63
2018-07-10T06:20:01.964Z,67.35
2018-07-10T06:21:01.948Z,66.77
2018-07-10T06:22:01.932Z,66.49
2018-07-10T06:23:01.920Z,66.49
2018-07-10T06:24:01.906Z,66.67
2018-07-10T06:25:01.891Z,66.96
2018-07-10T06:26:01.878Z,67.54
2018-07-10T06:27:01.865Z,67.54
2018-07-10T06:28:01.848Z,67.63
2018-07-10T06:29:01.840Z,67.44
2018-07-10T06:30:01.820Z,67.25
2018-07-10T06:31:01.804Z,67.25
2018-07-10T06:32:01.794Z,67.54
2018-07-10T06:33:01.777Z,67.63
2018-07-10T06:34:01.762Z,68.59
2018-07-10T06:35:01.747Z,68.12
2018-07-10T06:36:01.734Z,67.25
2018-07-10T06:37:01.722Z,66.39
2018-07-10T06:38:01.709Z,66.29
2018-07-10T06:39:01.692Z,66.00
2018-07-10T06:40:01.676Z,65.91
2018-07-10T06:41:01.663Z,65.75
2018-07-10T06:42:01.645Z,65.56
2018-07-10T06:43:01.633Z,65.65
2018-07-10T06:44:01.622Z,66.33
2018-07-10T06:45:01.612Z,65.75
2018-07-10T06:46:01.593Z,65.36
2018-07-10T06:47:01.579Z,65.27
2018-07-10T06:48:01.563Z,64.98
2018-07-10T06:49:01.553Z,64.89
2018-07-10T06:50:01.531Z,64.40
2018-07-10T06:51:01.520Z,65.08
2018-07-10T06:52:01.507Z,64.59
2018-07-10T06:53:01.739Z,64.59
2018-07-10T06:54:01.477Z,63.45
2018-07-10T06:55:01.466Z,64.40
2018-07-10T06:56:01.449Z,64.69
2018-07-10T06:57:01.435Z,64.82
2018-07-10T06:58:01.424Z,64.92
2018-07-10T06:59:01.406Z,65.49
2018-07-10T07:00:01.397Z,64.92
2018-07-10T07:01:01.379Z,65.20
2018-07-10T07:02:01.365Z,65.97
2018-07-10T07:03:01.349Z,64.92
2018-07-10T07:04:01.341Z,63.09
2018-07-10T07:05:01.324Z,63.28
2018-07-10T07:06:01.309Z,63.70
2018-07-10T07:07:01.297Z,64.56
2018-07-10T07:08:01.346Z,64.85
2018-07-10T07:09:01.269Z,64.66
2018-07-10T07:10:01.255Z,63.79
2018-07-10T07:11:01.240Z,63.70
2018-07-10T07:12:01.227Z,63.99
2018-07-10T07:13:01.216Z,63.96
2018-07-10T07:14:01.207Z,63.89
2018-07-10T07:15:01.190Z,63.48
2018-07-10T07:16:01.173Z,63.32
2018-07-10T07:17:01.159Z,63.32
2018-07-10T07:18:01.145Z,63.96
2018-07-10T07:19:01.131Z,63.99
2018-07-10T07:20:01.118Z,63.41
2018-07-10T07:21:01.104Z,62.93
2018-07-10T07:22:01.102Z,62.55
2018-07-10T07:23:01.083Z,62.35
2018-07-10T07:24:01.065Z,62.74
2018-07-10T07:25:01.057Z,63.22
2018-07-10T07:26:01.038Z,63.12
2018-07-10T07:27:01.026Z,62.45
2018-07-10T07:28:01.012Z,62.64
2018-07-10T07:29:00.997Z,63.22
2018-07-10T07:30:00.985Z,62.55
2018-07-10T07:31:00.972Z,62.93
2018-07-10T07:32:00.959Z,61.04
2018-07-10T07:33:00.947Z,61.81
2018-07-10T07:34:00.935Z,62.58
2018-07-10T07:35:00.966Z,62.77
2018-07-10T07:36:00.908Z,63.15
2018-07-10T07:37:00.892Z,64.69
2018-07-10T07:38:00.879Z,62.87
2018-07-10T07:39:00.868Z,62.48
2018-07-10T07:40:00.854Z,61.61
2018-07-10T07:41:00.842Z,62.16
2018-07-10T07:42:00.829Z,61.97
2018-07-10T07:43:00.814Z,61.91
2018-07-10T07:44:00.933Z,61.78
2018-07-10T07:45:00.788Z,61.78
2018-07-10T07:46:00.776Z,62.26
2018-07-10T07:47:00.763Z,62.55
2018-07-10T07:48:00.750Z,62.55
2018-07-10T07:49:00.737Z,62.64
2018-07-10T07:50:00.733Z,62.45
2018-07-10T07:51:00.709Z,62.84
2018-07-10T07:52:00.698Z,63.22
2018-07-10T07:53:00.688Z,62.55
2018-07-10T07:54:00.671Z,63.25
2018-07-10T07:55:00.665Z,62.77
2018-07-10T07:56:00.645Z,62.29
2018-07-10T07:57:00.632Z,61.91
2018-07-10T07:58:00.620Z,60.85
2018-07-10T07:59:00.609Z,62.10
2018-07-10T08:00:00.595Z,61.33
2018-07-10T08:01:00.582Z,60.37
2018-07-10T08:02:00.567Z,61.14
2018-07-10T08:03:00.558Z,61.71
2018-07-10T08:04:00.540Z,62.68
2018-07-10T08:05:00.528Z,63.57
2018-07-10T08:06:00.515Z,63.09
2018-07-10T08:07:00.504Z,63.67
2018-07-10T08:08:00.489Z,61.65
2018-07-10T08:09:00.477Z,60.97
2018-07-10T08:10:00.464Z,60.33
2018-07-10T08:11:00.451Z,59.17
2018-07-10T08:12:00.438Z,58.40
2018-07-10T08:13:00.425Z,59.17
2018-07-10T08:14:00.418Z,58.60
2018-07-10T08:15:00.401Z,58.60
2018-07-10T08:16:00.389Z,59.85
2018-07-10T08:17:00.379Z,60.17
2018-07-10T08:18:00.368Z,60.65
2018-07-10T08:19:00.352Z,61.90
2018-07-10T08:20:00.344Z,61.13
2018-07-10T08:21:01.140Z,61.42
2018-07-10T08:22:00.313Z,60.94
2018-07-10T08:23:00.303Z,60.65
2018-07-10T08:24:00.294Z,61.22
2018-07-10T08:25:00.280Z,61.52
2018-07-10T08:26:00.266Z,60.84
2018-07-10T08:27:00.257Z,60.55
2018-07-10T08:28:00.243Z,62.00
2018-07-10T08:29:00.236Z,61.52
2018-07-10T08:30:00.218Z,61.61
2018-07-10T08:31:00.205Z,60.75
2018-07-10T08:32:00.199Z,60.75
2018-07-10T08:33:00.187Z,60.77
2018-07-10T08:34:00.247Z,60.87
2018-07-10T08:35:00.159Z,60.97
2018-07-10T08:36:00.151Z,60.58
2018-07-10T08:37:00.136Z,60.94
2018-07-10T08:38:00.133Z,61.22
2018-07-10T08:39:00.116Z,61.13
2018-07-10T08:40:00.110Z,61.00
2018-07-10T08:41:00.089Z,61.58
2018-07-10T08:42:00.080Z,62.90
2018-07-10T08:43:00.071Z,62.41
2018-07-10T08:44:00.055Z,63.25
2018-07-10T08:45:00.075Z,63.45
2018-07-10T08:46:00.032Z,65.08
2018-07-10T08:47:00.018Z,64.31
2018-07-10T08:48:00.017Z,63.92
2018-07-10T08:48:59.995Z,63.83
2018-07-10T08:49:59.984Z,63.92
2018-07-10T08:50:59.970Z,64.02
2018-07-10T08:51:59.958Z,63.83
2018-07-10T08:52:59.951Z,64.02
2018-07-10T08:53:59.934Z,63.35
2018-07-10T08:54:59.926Z,63.45
2018-07-10T08:55:59.916Z,63.83
2018-07-10T08:56:59.901Z,63.76
2018-07-10T08:57:59.888Z,62.90
2018-07-10T08:58:59.881Z,62.74
2018-07-10T08:59:59.866Z,61.87
2018-07-10T09:00:59.860Z,61.71
2018-07-10T09:01:59.841Z,61.04
2018-07-10T09:02:59.829Z,59.94
2018-07-10T09:03:59.824Z,61.10
2018-07-10T09:04:59.811Z,61.49
2018-07-10T09:05:59.797Z,61.49
2018-07-10T09:06:59.784Z,61.87
2018-07-10T09:07:59.856Z,61.68
2018-07-10T09:08:59.763Z,62.54
2018-07-10T09:09:59.750Z,63.12
2018-07-10T09:10:59.741Z,61.97
2018-07-10T09:11:59.733Z,62.35
2018-07-10T09:12:59.715Z,62.45
2018-07-10T09:13:59.767Z,62.45
2018-07-10T09:14:59.692Z,62.74
2018-07-10T09:15:59.681Z,61.39
2018-07-10T09:16:59.670Z,62.48
2018-07-10T09:17:59.660Z,61.49
2018-07-10T09:18:59.648Z,61.19
2018-07-10T09:19:59.638Z,61.13
2018-07-10T09:20:59.625Z,61.22
2018-07-10T09:21:59.613Z,60.75
2018-07-10T09:22:59.604Z,60.84
2018-07-10T09:23:59.593Z,60.07
2018-07-10T09:24:59.578Z,60.58
2018-07-10T09:25:59.571Z,60.00
2018-07-10T09:26:59.555Z,59.91
2018-07-10T09:27:59.555Z,60.30
2018-07-10T09:28:59.538Z,59.97
2018-07-10T09:29:59.523Z,60.27
2018-07-10T09:30:59.514Z,60.75
2018-07-10T09:31:59.504Z,61.61
2018-07-10T09:32:59.494Z,60.84
2018-07-10T09:33:59.479Z,60.94
2018-07-10T09:34:59.468Z,60.42
2018-07-10T09:35:59.456Z,60.62
2018-07-10T09:36:59.445Z,60.33
2018-07-10T09:37:59.452Z,61.10
2018-07-10T09:38:59.422Z,61.52
2018-07-10T09:39:59.432Z,61.49
2018-07-10T09:40:59.402Z,61.61
2018-07-10T09:41:59.392Z,60.75
2018-07-10T09:42:59.376Z,61.22
2018-07-10T09:43:59.415Z,60.84
2018-07-10T09:44:59.354Z,59.33
2018-07-10T09:45:59.343Z,59.33
2018-07-10T09:46:59.396Z,58.37
2018-07-10T09:47:59.322Z,58.20
2018-07-10T09:48:59.316Z,57.79
2018-07-10T09:49:59.301Z,57.46
2018-07-10T09:50:59.287Z,56.30
2018-07-10T09:51:59.280Z,54.72
2018-07-10T09:52:59.270Z,54.17
2018-07-10T09:53:59.256Z,52.00
2018-07-10T09:54:59.438Z,52.14
2018-07-10T09:55:59.235Z,48.61
2018-07-10T09:56:59.228Z,47.40
2018-07-10T09:57:59.216Z,45.68
2018-07-10T09:58:59.207Z,45.92
2018-07-10T09:59:59.203Z,44.31
2018-07-10T10:00:59.192Z,42.53
2018-07-10T10:01:59.248Z,39.26
2018-07-10T10:02:59.180Z,36.86
2018-07-10T10:03:59.168Z,36.39
2018-07-10T10:04:59.162Z,35.64
2018-07-10T10:05:59.155Z,33.80
2018-07-10T10:06:59.155Z,33.34
2018-07-10T10:07:59.148Z,33.38
2018-07-10T10:08:59.143Z,32.82
2018-07-10T10:09:59.133Z,31.29
2018-07-10T10:10:59.133Z,30.53
2018-07-10T10:11:59.125Z,29.07
2018-07-10T10:12:59.119Z,30.76
2018-07-10T10:13:59.114Z,28.33
2018-07-10T10:14:59.113Z,27.06
2018-07-10T10:15:59.108Z,27.04
2018-07-10T10:16:59.105Z,28.39
2018-07-10T10:17:59.101Z,29.05
2018-07-10T10:18:59.097Z,28.33
2018-07-10T10:19:59.097Z,31.47
2018-07-10T10:20:59.093Z,30.00
2018-07-10T10:21:59.088Z,29.06
2018-07-10T10:22:59.084Z,31.35
2018-07-10T10:23:59.080Z,33.09
2018-07-10T10:24:59.082Z,35.78
2018-07-10T10:25:59.077Z,35.75
2018-07-10T10:26:59.073Z,36.98
2018-07-10T10:27:59.070Z,36.12
2018-07-10T10:28:59.066Z,36.30
2018-07-10T10:29:59.062Z,36.41
2018-07-10T10:30:59.063Z,37.87
2018-07-10T10:31:59.056Z,35.05
2018-07-10T10:32:59.054Z,36.02
2018-07-10T10:33:59.051Z,37.10
2018-07-10T10:34:59.047Z,36.02
2018-07-10T10:35:59.047Z,36.33
2018-07-10T10:36:59.047Z,37.02
2018-07-10T10:37:59.039Z,36.20
2018-07-10T10:38:59.043Z,37.76
2018-07-10T10:39:59.030Z,37.26
2018-07-10T10:40:59.036Z,38.13
2018-07-10T10:41:59.025Z,38.87
2018-07-10T10:42:59.023Z,37.78
2018-07-10T10:43:59.017Z,39.12
2018-07-10T10:44:59.014Z,40.09
2018-07-10T10:45:59.009Z,41.06
2018-07-10T10:46:59.006Z,41.14
2018-07-10T10:47:59.001Z,41.22
2018-07-10T10:48:58.998Z,42.29
2018-07-10T10:49:58.996Z,42.26
2018-07-10T10:50:58.990Z,43.89
2018-07-10T10:51:58.991Z,44.47
2018-07-10T10:52:58.984Z,45.73
2018-07-10T10:53:58.978Z,44.27
2018-07-10T10:54:59.041Z,44.16
2018-07-10T10:55:58.978Z,44.26
2018-07-10T10:56:58.963Z,45.30
2018-07-10T10:57:58.956Z,45.40
2018-07-10T10:58:58.954Z,45.95
2018-07-10T10:59:58.947Z,45.86
2018-07-10T11:00:58.943Z,46.70
2018-07-10T11:01:58.936Z,46.61
2018-07-10T11:02:58.933Z,47.55
2018-07-10T11:03:58.928Z,48.32
2018-07-10T11:04:58.922Z,49.39
2018-07-10T11:05:58.916Z,48.35
2018-07-10T11:06:58.909Z,47.74
2018-07-10T11:07:58.909Z,48.52
2018-07-10T11:08:58.899Z,48.16
2018-07-10T11:09:58.899Z,48.35
2018-07-10T11:10:58.894Z,48.44
2018-07-10T11:11:58.879Z,48.30
2018-07-10T11:12:58.928Z,48.88
2018-07-10T11:13:58.867Z,48.79
2018-07-10T11:14:58.862Z,49.46
2018-07-10T11:15:58.857Z,50.81
2018-07-10T11:16:58.857Z,51.97
2018-07-10T11:17:58.845Z,50.16
2018-07-10T11:18:58.838Z,48.81
2018-07-10T11:19:58.829Z,48.61
2018-07-10T11:20:58.822Z,49.22
2018-07-10T11:21:58.814Z,47.19
2018-07-10T11:22:58.808Z,47.96
2018-07-10T11:23:58.804Z,48.35
2018-07-10T11:24:58.800Z,48.06
2018-07-10T11:25:58.785Z,48.35
2018-07-10T11:26:58.782Z,48.64
2018-07-10T11:27:58.775Z,47.79
2018-07-10T11:28:58.768Z,46.83
2018-07-10T11:29:58.758Z,47.00
2018-07-10T11:30:58.751Z,46.90
2018-07-10T11:31:58.758Z,46.80
2018-07-10T11:32:58.738Z,46.70
2018-07-10T11:33:58.732Z,46.80
2018-07-10T11:34:58.729Z,45.64
2018-07-10T11:35:58.723Z,46.80
2018-07-10T11:36:58.711Z,47.86
2018-07-10T11:37:58.704Z,46.61
2018-07-10T11:38:58.748Z,47.48
2018-07-10T11:39:58.690Z,48.25
2018-07-10T11:40:58.686Z,48.76
2018-07-10T11:41:58.680Z,47.50
2018-07-10T11:42:58.668Z,47.09
2018-07-10T11:43:58.666Z,48.64
2018-07-10T11:44:58.657Z,49.39
2018-07-10T11:45:58.648Z,50.16
2018-07-10T11:46:58.643Z,49.97
2018-07-10T11:47:58.636Z,49.77
2018-07-10T11:48:58.626Z,49.19
2018-07-10T11:49:58.633Z,51.25
2018-07-10T11:50:58.619Z,49.00
2018-07-10T11:51:58.607Z,49.46
2018-07-10T11:52:58.600Z,49.75
2018-07-10T11:53:58.596Z,51.07
2018-07-10T11:54:58.587Z,51.17
2018-07-10T11:55:58.575Z,51.15
2018-07-10T11:56:58.574Z,52.31
2018-07-10T11:57:58.562Z,52.50
2018-07-10T11:58:58.558Z,53.56
2018-07-10T11:59:58.553Z,53.92
2018-07-10T12:00:58.539Z,54.50
2018-07-10T12:01:58.583Z,55.24
2018-07-10T12:02:58.522Z,56.01
2018-07-10T12:03:58.516Z,56.01
2018-07-10T12:04:58.511Z,56.62
2018-07-10T12:05:58.508Z,56.21
2018-07-10T12:06:58.490Z,55.94
2018-07-10T12:07:58.483Z,55.56
2018-07-10T12:08:58.474Z,55.46
2018-07-10T12:09:58.468Z,55.46
2018-07-10T12:10:58.458Z,55.73
2018-07-10T12:11:58.447Z,55.73
2018-07-10T12:12:58.440Z,56.79
2018-07-10T12:13:58.430Z,56.85
2018-07-10T12:14:58.429Z,57.05
2018-07-10T12:15:58.410Z,57.34
2018-07-10T12:16:58.407Z,58.01
2018-07-10T12:17:58.395Z,58.01
2018-07-10T12:18:58.389Z,58.20
2018-07-10T12:19:58.375Z,57.82
2018-07-10T12:20:58.371Z,57.79
2018-07-10T12:21:58.362Z,58.75
2018-07-10T12:22:58.348Z,58.30
2018-07-10T12:23:58.338Z,58.78
2018-07-10T12:24:58.329Z,58.40
2018-07-10T12:25:58.317Z,58.97
2018-07-10T12:26:58.310Z,58.88
2018-07-10T12:27:58.329Z,59.07
2018-07-10T12:28:58.292Z,59.04
2018-07-10T12:29:58.282Z,59.14
2018-07-10T12:30:58.276Z,59.97
2018-07-10T12:31:58.267Z,60.07
2018-07-10T12:32:58.250Z,60.65
2018-07-10T12:33:58.240Z,61.04
2018-07-10T12:34:58.252Z,62.00
2018-07-10T12:35:58.226Z,62.38
2018-07-10T12:36:58.213Z,63.25
2018-07-10T12:37:58.200Z,62.67
2018-07-10T12:38:58.190Z,62.67
2018-07-10T12:39:58.180Z,62.19
2018-07-10T12:40:58.171Z,63.34
2018-07-10T12:41:58.160Z,64.12
2018-07-10T12:42:58.148Z,64.59
2018-07-10T12:43:58.139Z,65.27
2018-07-10T12:44:58.127Z,65.24
2018-07-10T12:45:58.119Z,65.53
2018-07-10T12:46:58.108Z,65.72
2018-07-10T12:47:58.097Z,66.39
2018-07-10T12:48:58.088Z,65.53
2018-07-10T12:49:58.077Z,65.91
2018-07-10T12:50:58.069Z,65.43
2018-07-10T12:51:58.053Z,66.58